Time;durP1;ratioP1;P1;durP2;ratioP2;P2;SDS_P1;SDS_P2;PMS_P1;PMS_P2;Temp;Humidity;BMP_temperature;BMP_pressure;BME280_temperature;BME280_humidity;BME280_pressure;Samples;Min_cycle;Max_cycle;Signal;HPM_P1;HPM_P2
2023/05/31 00:01:41;;;;;;;16.75;6.97;;;13.90;99.90;;;13.08;100.00;101658.88;4152612;28;20057;-79
2023/05/31 00:03:43;;;;;;;18.65;7.43;;;13.80;99.90;;;13.00;100.00;101661.41;4170036;28;20079;-79
2023/05/31 00:05:44;;;;;;;17.10;6.30;;;13.80;99.90;;;13.03;100.00;101666.41;4168865;28;20025;-80
2023/05/31 00:07:45;;;;;;;15.00;6.20;;;13.80;99.90;;;13.10;100.00;101685.22;4169945;28;20453;-80
2023/05/31 00:09:45;;;;;;;17.33;6.90;;;13.70;99.90;;;13.10;100.00;101685.22;4168803;28;20018;-79
2023/05/31 00:11:46;;;;;;;19.63;7.05;;;13.70;99.90;;;13.02;100.00;101691.22;4169517;28;20104;-79
2023/05/31 00:13:47;;;;;;;20.65;7.80;;;13.70;99.90;;;12.91;100.00;101664.94;4168617;28;20026;-80
2023/05/31 00:15:48;;;;;;;19.50;7.40;;;13.60;99.90;;;12.86;100.00;101661.91;4166655;28;20493;-80
2023/05/31 00:17:49;;;;;;;20.40;6.40;;;13.60;99.90;;;12.84;100.00;101665.69;4135967;28;20085;-80
2023/05/31 00:19:50;;;;;;;15.55;7.78;;;13.60;99.90;;;12.72;100.00;101646.53;4152273;28;20129;-80
2023/05/31 00:21:51;;;;;;;22.58;7.68;;;13.50;99.90;;;12.88;100.00;101686.44;4159475;28;20021;-79
2023/05/31 00:23:52;;;;;;;18.45;7.45;;;13.50;99.90;;;12.71;100.00;101658.94;4166932;28;20060;-79
2023/05/31 00:25:53;;;;;;;14.60;6.72;;;13.50;99.90;;;12.74;100.00;101673.69;4168538;28;20029;-80
2023/05/31 00:27:55;;;;;;;16.80;7.78;;;13.40;99.90;;;12.65;100.00;101663.97;4184594;28;20044;-79
2023/05/31 00:29:56;;;;;;;19.10;7.65;;;13.40;99.90;;;12.67;100.00;101673.44;4184880;28;20021;-79
2023/05/31 00:31:57;;;;;;;17.73;7.82;;;13.40;99.90;;;12.64;100.00;101672.88;4168099;28;20029;-79
2023/05/31 00:33:58;;;;;;;15.73;6.75;;;13.40;99.90;;;12.69;100.00;101683.91;4169607;28;20048;-79
2023/05/31 00:35:58;;;;;;;17.65;6.55;;;13.30;99.90;;;12.69;100.00;101687.34;4169480;28;20104;-79
2023/05/31 00:38:05;;;;;;;16.25;6.90;;;13.30;99.90;;;12.53;100.00;101668.63;4169615;28;20071;-79
2023/05/31 00:40:06;;;;;;;22.27;7.45;;;13.30;99.90;;;12.60;100.00;101687.41;4151696;28;20480;-79
2023/05/31 00:42:08;;;;;;;15.88;8.70;;;13.30;99.90;;;12.50;100.00;101666.28;4168092;28;20025;-79
2023/05/31 00:44:09;;;;;;;15.32;6.68;;;13.20;99.90;;;12.58;100.00;101686.72;4184697;28;20031;-79
2023/05/31 00:46:26;;;;;;;16.42;7.45;;;13.20;99.90;;;12.35;100.00;101649.22;4168312;28;20025;-79
2023/05/31 00:48:28;;;;;;;16.15;7.00;;;13.20;99.90;;;12.37;100.00;101667.56;4168282;28;20040;-79
2023/05/31 00:50:29;;;;;;;13.10;6.80;;;13.10;99.90;;;12.42;100.00;101670.63;4168036;28;20034;-79
2023/05/31 00:52:32;;;;;;;21.77;8.10;;;13.10;99.90;;;12.44;100.00;101682.75;4157596;28;20133;-79
2023/05/31 00:54:33;;;;;;;14.40;6.72;;;13.10;99.90;;;12.25;100.00;101650.22;4165647;28;20032;-80
2023/05/31 00:56:34;;;;;;;19.42;7.70;;;13.00;99.90;;;12.22;100.00;101651.34;4155763;28;20021;-79
2023/05/31 00:58:37;;;;;;;16.92;6.80;;;13.00;99.90;;;12.26;100.00;101658.00;4157347;28;20098;-79
2023/05/31 01:00:38;;;;;;;17.63;7.30;;;13.00;99.90;;;12.21;100.00;101650.50;4151454;28;20022;-79
2023/05/31 01:02:41;;;;;;;18.40;6.85;;;13.00;99.90;;;12.27;100.00;101662.34;4167905;28;20036;-79
2023/05/31 01:04:42;;;;;;;15.57;6.78;;;12.90;99.90;;;12.14;100.00;101644.13;4151309;28;20030;-80
2023/05/31 01:06:43;;;;;;;21.02;7.40;;;12.90;99.90;;;12.19;100.00;101652.47;4152785;28;20508;-79
2023/05/31 01:08:44;;;;;;;15.55;7.30;;;12.90;99.90;;;12.09;100.00;101638.44;4152758;28;20093;-79
2023/05/31 01:10:46;;;;;;;16.77;7.50;;;12.90;99.90;;;12.07;100.00;101643.03;4152636;28;20409;-79
2023/05/31 01:13:19;;;;;;;18.30;7.82;;;12.80;99.90;;;12.02;100.00;101637.34;4154631;28;20049;-79
2023/05/31 01:15:25;;;;;;;18.00;6.97;;;12.80;99.90;;;12.23;100.00;101675.97;4168064;28;20054;-79
2023/05/31 01:17:59;;;;;;;17.88;7.03;;;12.80;99.90;;;12.18;100.00;101676.44;4152656;28;20076;-79
2023/05/31 01:20:08;;;;;;;13.50;6.88;;;12.80;99.90;;;12.00;100.00;101649.88;4151617;28;20069;-79
2023/05/31 01:22:23;;;;;;;21.45;8.32;;;12.70;99.90;;;11.92;100.00;101641.81;4155340;28;20029;-79
2023/05/31 01:24:53;;;;;;;16.20;7.32;;;12.70;99.90;;;12.02;100.00;101658.50;4168720;28;20040;-79
2023/05/31 01:26:59;;;;;;;23.88;8.00;;;12.70;99.90;;;12.02;100.00;101677.00;4155698;28;20493;-79
2023/05/31 01:29:05;;;;;;;24.52;9.10;;;12.70;99.90;;;11.87;100.00;101659.09;4154898;28;20108;-79
2023/05/31 01:31:11;;;;;;;16.10;8.40;;;12.60;99.90;;;11.94;100.00;101674.25;4167667;28;20041;-79
2023/05/31 01:33:13;;;;;;;16.05;7.78;;;12.60;99.90;;;11.86;100.00;101654.75;4168734;28;20025;-79
2023/05/31 01:35:15;;;;;;;13.77;8.10;;;12.60;99.90;;;11.81;100.00;101659.66;4167304;28;20040;-80
2023/05/31 01:37:15;;;;;;;15.23;7.57;;;12.60;99.90;;;11.80;100.00;101658.81;4167320;28;20160;-80
2023/05/31 01:39:20;;;;;;;16.08;8.77;;;12.50;99.90;;;11.76;100.00;101662.72;4168688;28;20030;-80
2023/05/31 01:41:23;;;;;;;18.75;8.05;;;12.50;99.90;;;11.78;100.00;101660.78;4168649;28;20460;-79
2023/05/31 01:43:26;;;;;;;16.43;8.40;;;12.50;99.90;;;11.77;100.00;101667.03;4168352;28;20542;-79
2023/05/31 01:45:28;;;;;;;16.52;8.13;;;12.50;99.90;;;11.72;100.00;101650.75;4151230;28;20036;-79
2023/05/31 01:47:31;;;;;;;21.33;9.05;;;12.50;99.90;;;11.65;100.00;101652.25;4167371;28;20048;-79
2023/05/31 01:49:32;;;;;;;14.27;8.25;;;12.50;99.90;;;11.70;100.00;101655.38;4167289;28;20060;-79
2023/05/31 01:51:37;;;;;;;22.10;9.77;;;12.40;99.90;;;11.69;100.00;101664.22;4168539;28;20116;-79
2023/05/31 01:53:38;;;;;;;19.75;9.35;;;12.40;99.90;;;11.75;100.00;101676.06;4167407;28;20036;-79
2023/05/31 01:55:39;;;;;;;17.25;8.57;;;12.40;99.90;;;11.58;100.00;101643.25;4162160;28;20046;-80
2023/05/31 01:57:44;;;;;;;20.02;8.55;;;12.40;99.90;;;11.54;100.00;101650.63;4163172;28;20033;-79
2023/05/31 01:59:45;;;;;;;21.70;8.82;;;12.30;99.90;;;11.57;100.00;101649.50;4167159;28;20116;-80
2023/05/31 02:01:47;;;;;;;16.58;8.25;;;12.30;99.90;;;11.56;100.00;101650.47;4168561;28;20040;-79
2023/05/31 02:03:53;;;;;;;14.57;8.18;;;12.30;99.90;;;11.45;100.00;101632.97;4167520;28;20026;-79
2023/05/31 02:06:00;;;;;;;21.88;9.68;;;12.30;99.90;;;11.62;100.00;101669.25;4168864;28;20071;-79
2023/05/31 02:08:02;;;;;;;21.10;9.43;;;12.20;99.90;;;11.46;100.00;101647.00;4166994;28;20029;-80
2023/05/31 02:10:04;;;;;;;17.67;8.23;;;12.20;99.90;;;11.51;100.00;101668.53;4168338;28;20037;-80
2023/05/31 02:12:06;;;;;;;14.77;8.57;;;12.20;99.90;;;11.50;100.00;101664.22;4167297;28;20014;-80
2023/05/31 02:14:06;;;;;;;19.95;8.88;;;12.20;99.90;;;11.45;100.00;101647.97;4166914;28;20039;-80
2023/05/31 02:16:07;;;;;;;17.75;8.73;;;12.10;99.90;;;11.37;100.00;101639.91;4152886;28;20041;-80
2023/05/31 02:18:08;;;;;;;20.67;9.80;;;12.10;99.90;;;11.34;100.00;101632.28;4155211;28;20026;-80
2023/05/31 02:20:12;;;;;;;18.33;9.70;;;12.10;99.90;;;11.46;100.00;101654.94;4155253;28;20053;-80
2023/05/31 02:22:14;;;;;;;12.77;9.52;;;12.10;99.90;;;11.30;100.00;101638.78;4158376;28;20029;-80
2023/05/31 02:24:15;;;;;;;15.98;8.30;;;12.00;99.90;;;11.25;100.00;101633.09;4171658;28;20037;-79
2023/05/31 02:26:17;;;;;;;16.98;9.60;;;12.00;99.90;;;11.20;100.00;101622.13;4170512;28;20065;-80
2023/05/31 02:28:18;;;;;;;19.77;9.00;;;12.00;99.90;;;11.28;100.00;101630.19;4170199;28;20025;-80
2023/05/31 02:30:19;;;;;;;16.85;9.20;;;12.00;99.90;;;11.24;100.00;101637.53;4163749;28;20030;-80
2023/05/31 02:32:20;;;;;;;14.82;9.00;;;12.00;99.90;;;11.26;100.00;101646.16;4137822;28;20612;-80
2023/05/31 02:34:21;;;;;;;17.33;9.27;;;11.90;99.90;;;11.28;100.00;101653.94;4170258;28;20029;-80
2023/05/31 02:36:22;;;;;;;22.30;9.38;;;11.90;99.90;;;11.15;100.00;101632.25;4155009;28;20030;-80
2023/05/31 02:38:23;;;;;;;18.75;9.30;;;11.90;99.90;;;11.10;100.00;101622.94;4155100;28;20496;-80
2023/05/31 02:40:24;;;;;;;15.07;8.70;;;11.90;99.90;;;11.16;100.00;101639.22;4155104;28;20080;-80
2023/05/31 02:42:25;;;;;;;14.93;9.00;;;11.80;99.90;;;11.11;100.00;101634.31;4153408;28;20032;-80
2023/05/31 02:44:26;;;;;;;14.60;9.13;;;11.90;99.90;;;11.04;100.00;101628.78;4154957;28;20033;-80
2023/05/31 02:46:27;;;;;;;17.50;9.75;;;11.80;99.90;;;10.98;100.00;101620.56;4154969;28;20034;-80
2023/05/31 02:48:29;;;;;;;22.10;10.63;;;11.80;99.90;;;11.02;100.00;101633.34;4154979;28;20026;-80
2023/05/31 02:50:30;;;;;;;15.30;9.48;;;11.80;99.90;;;11.01;100.00;101626.41;4154737;28;20041;-80
2023/05/31 02:52:31;;;;;;;17.15;9.18;;;11.80;99.90;;;11.00;100.00;101643.22;4154727;28;20036;-80
2023/05/31 02:54:32;;;;;;;17.25;8.43;;;11.80;99.90;;;10.95;100.00;101639.31;4154702;28;20092;-80
2023/05/31 02:56:33;;;;;;;18.70;9.80;;;11.70;99.90;;;10.90;100.00;101634.44;4154437;28;20030;-79
2023/05/31 02:58:34;;;;;;;20.17;10.02;;;11.70;99.90;;;10.85;100.00;101630.53;4154671;28;20034;-79
2023/05/31 03:00:35;;;;;;;18.73;10.10;;;11.70;99.90;;;10.81;100.00;101616.78;4153482;28;20034;-80
2023/05/31 03:02:37;;;;;;;16.90;10.65;;;11.70;99.90;;;10.94;100.00;101646.41;4153337;28;20037;-79
2023/05/31 03:04:38;;;;;;;18.92;10.10;;;11.70;99.90;;;10.86;100.00;101634.84;4139390;28;20034;-80
2023/05/31 03:06:39;;;;;;;21.15;10.30;;;11.60;99.90;;;10.82;100.00;101631.66;4170985;28;20029;-80
2023/05/31 03:08:40;;;;;;;21.75;9.73;;;11.60;99.90;;;10.90;100.00;101645.00;4170887;28;20534;-80
2023/05/31 03:10:41;;;;;;;19.05;10.20;;;11.60;99.90;;;10.76;100.00;101620.78;4170808;28;20191;-79
2023/05/31 03:12:42;;;;;;;16.52;10.30;;;11.60;99.90;;;10.77;100.00;101625.94;4169154;28;20021;-79
2023/05/31 03:14:43;;;;;;;19.85;10.55;;;11.60;99.90;;;10.85;100.00;101634.03;4169533;28;20463;-80
2023/05/31 03:16:45;;;;;;;19.75;10.07;;;11.60;99.90;;;10.78;100.00;101622.31;4162321;28;20045;-79
2023/05/31 03:18:46;;;;;;;16.27;9.35;;;11.60;99.90;;;10.80;100.00;101638.03;4169521;28;20455;-80
2023/05/31 03:20:47;;;;;;;18.42;9.10;;;11.60;99.90;;;10.81;100.00;101637.88;4169326;28;20029;-79
2023/05/31 03:22:48;;;;;;;19.30;10.63;;;11.50;99.90;;;10.69;100.00;101617.88;4166076;28;20108;-80
2023/05/31 03:24:49;;;;;;;18.27;9.98;;;11.50;99.90;;;10.75;100.00;101627.88;4170585;28;20498;-80
2023/05/31 03:26:50;;;;;;;14.70;9.32;;;11.50;99.90;;;10.74;100.00;101623.59;4152580;28;20103;-79
2023/05/31 03:28:51;;;;;;;17.55;10.52;;;11.40;99.90;;;10.73;100.00;101619.25;4170392;28;20025;-80
2023/05/31 03:30:52;;;;;;;18.50;9.68;;;11.50;99.90;;;10.76;100.00;101632.19;4170432;28;20167;-79
2023/05/31 03:32:53;;;;;;;18.48;10.27;;;11.50;99.90;;;10.60;100.00;101602.88;4161295;28;20033;-80
2023/05/31 03:34:54;;;;;;;21.55;11.15;;;11.40;99.90;;;10.67;100.00;101616.34;4154080;28;20034;-80
2023/05/31 03:36:55;;;;;;;23.00;11.32;;;11.40;99.90;;;10.64;100.00;101616.59;4152756;28;20405;-80
2023/05/31 03:38:56;;;;;;;20.63;10.07;;;11.40;99.90;;;10.60;100.00;101616.06;4136570;28;20034;-80
2023/05/31 03:40:57;;;;;;;17.42;9.57;;;11.40;99.90;;;10.66;100.00;101628.72;4152890;28;20465;-80
2023/05/31 03:42:58;;;;;;;19.85;10.93;;;11.40;99.90;;;10.56;100.00;101614.66;4168977;28;20033;-79
2023/05/31 03:44:59;;;;;;;20.13;10.98;;;11.30;99.90;;;10.52;100.00;101606.16;4153835;28;20069;-79
2023/05/31 03:46:59;;;;;;;28.23;11.10;;;11.30;99.90;;;10.59;100.00;101613.53;4153957;28;20033;-80
2023/05/31 03:49:01;;;;;;;22.30;10.75;;;11.40;99.90;;;10.51;100.00;101612.41;4153835;28;20026;-79
2023/05/31 03:51:01;;;;;;;22.13;11.40;;;11.30;99.90;;;10.54;100.00;101620.03;4165211;28;20117;-80
2023/05/31 03:53:02;;;;;;;17.15;9.45;;;11.30;99.90;;;10.57;100.00;101611.06;4168908;28;20033;-79
2023/05/31 03:55:04;;;;;;;18.65;10.70;;;11.30;99.90;;;10.54;100.00;101611.31;4169146;28;20439;-79
2023/05/31 03:57:06;;;;;;;17.17;11.20;;;11.30;99.90;;;10.48;100.00;101601.31;4169924;28;20109;-79
2023/05/31 03:59:08;;;;;;;16.85;10.90;;;11.30;99.90;;;10.50;100.00;101613.38;4152626;28;20017;-80
2023/05/31 04:01:09;;;;;;;21.00;10.10;;;11.30;99.90;;;10.47;100.00;101610.19;4169684;28;20030;-79
2023/05/31 04:03:11;;;;;;;19.80;10.55;;;11.30;99.90;;;10.44;100.00;101606.00;4152390;28;20037;-79
2023/05/31 04:05:12;;;;;;;17.15;9.82;;;11.20;99.90;;;10.46;100.00;101608.50;4169971;28;20029;-79
2023/05/31 04:07:13;;;;;;;18.88;10.48;;;11.20;99.90;;;10.60;100.00;101623.97;4168651;28;20033;-79
2023/05/31 04:09:14;;;;;;;20.80;10.57;;;11.20;99.90;;;10.41;100.00;101601.00;4168410;28;20069;-79
2023/05/31 04:11:15;;;;;;;23.02;11.48;;;11.20;99.90;;;10.48;100.00;101611.84;4168851;28;20029;-80
2023/05/31 04:13:16;;;;;;;18.70;12.40;;;11.20;99.90;;;10.52;100.00;101619.34;4168597;28;20025;-79
2023/05/31 04:15:19;;;;;;;16.80;9.00;;;11.20;99.90;;;10.50;100.00;101616.03;4169817;28;20086;-80
2023/05/31 04:17:20;;;;;;;16.90;10.03;;;11.30;99.90;;;10.56;100.00;101627.84;4154053;28;20529;-79
2023/05/31 04:19:21;;;;;;;18.80;10.10;;;11.30;99.90;;;10.51;100.00;101616.88;4152462;28;20089;-79
2023/05/31 04:21:22;;;;;;;22.00;12.52;;;11.30;99.90;;;10.50;100.00;101616.03;4153392;28;20033;-79
2023/05/31 04:23:23;;;;;;;24.65;11.32;;;11.20;99.90;;;10.55;100.00;101632.28;4167243;28;20025;-79
2023/05/31 04:25:24;;;;;;;18.77;10.70;;;11.20;99.90;;;10.44;100.00;101606.00;4168446;28;20036;-79
2023/05/31 04:27:27;;;;;;;18.17;11.27;;;11.20;99.90;;;10.61;100.00;101620.34;4160080;28;20026;-80
2023/05/31 04:29:28;;;;;;;22.27;11.00;;;11.20;99.90;;;10.55;100.00;101626.16;4152096;28;20048;-79
2023/05/31 04:31:29;;;;;;;19.42;10.88;;;11.20;99.90;;;10.50;100.00;101602.84;4153170;28;20026;-80
2023/05/31 04:33:30;;;;;;;24.92;12.13;;;11.20;99.90;;;10.57;100.00;101611.84;4151873;28;20527;-80
2023/05/31 04:35:31;;;;;;;24.95;13.05;;;11.30;99.90;;;10.68;100.00;101621.50;4151921;28;20038;-80
2023/05/31 04:37:32;;;;;;;21.35;12.57;;;11.30;99.90;;;10.59;100.00;101609.09;4153356;28;20052;-80
2023/05/31 04:39:34;;;;;;;23.58;11.40;;;11.30;99.90;;;10.67;100.00;101626.88;4135158;28;20035;-80
2023/05/31 04:41:35;;;;;;;20.83;11.68;;;11.30;99.90;;;10.58;100.00;101610.06;4168056;28;20499;-80
2023/05/31 04:43:39;;;;;;;21.02;12.60;;;11.30;99.90;;;10.63;100.00;101610.50;4153075;28;20030;-80
2023/05/31 04:45:40;;;;;;;21.30;12.70;;;11.30;99.90;;;10.69;100.00;101630.25;4167043;28;20488;-80
2023/05/31 04:47:41;;;;;;;21.58;12.98;;;11.30;99.90;;;10.63;100.00;101612.31;4151926;28;20026;-80
2023/05/31 04:49:42;;;;;;;22.25;12.40;;;11.30;99.90;;;10.60;100.00;101609.94;4169304;28;20116;-80
2023/05/31 04:51:43;;;;;;;20.83;12.15;;;11.30;99.90;;;10.62;100.00;101614.09;4169480;28;20033;-79
2023/05/31 04:53:45;;;;;;;26.63;13.32;;;11.40;99.90;;;10.68;100.00;101621.50;4151718;28;20017;-79
2023/05/31 04:55:46;;;;;;;25.13;13.80;;;11.40;99.90;;;10.63;100.00;101604.41;4168035;28;20029;-80
2023/05/31 04:57:47;;;;;;;21.52;13.15;;;11.40;99.90;;;10.64;100.00;101606.03;4162889;28;20021;-80
2023/05/31 04:59:48;;;;;;;25.52;13.73;;;11.40;99.90;;;10.79;100.00;101618.72;4163877;28;20377;-80
2023/05/31 05:01:50;;;;;;;21.23;13.57;;;11.40;99.90;;;10.82;100.00;101615.81;4151620;28;20558;-80
2023/05/31 05:03:52;;;;;;;25.45;12.98;;;11.50;99.90;;;10.72;100.00;101606.22;4153661;28;20025;-80
2023/05/31 05:05:56;;;;;;;27.38;14.05;;;11.50;99.90;;;10.87;100.00;101629.44;4151513;28;20092;-80
2023/05/31 05:07:57;;;;;;;21.83;13.27;;;11.50;99.90;;;10.83;100.00;101617.50;4152989;28;20044;-80
2023/05/31 05:09:59;;;;;;;22.60;12.95;;;11.50;99.90;;;10.81;100.00;101598.31;4151225;28;20068;-80
2023/05/31 05:12:00;;;;;;;22.85;13.57;;;11.60;99.90;;;10.86;100.00;101601.38;4152471;28;20068;-79
2023/05/31 05:14:01;;;;;;;21.50;12.63;;;11.60;99.90;;;11.00;100.00;101619.47;4151705;28;20018;-80
2023/05/31 05:16:02;;;;;;;20.33;12.80;;;11.60;99.90;;;10.86;100.00;101593.47;4151504;28;20532;-80
2023/05/31 05:18:03;;;;;;;20.50;13.10;;;11.60;99.90;;;10.95;100.00;101603.19;4152628;28;20392;-80
2023/05/31 05:20:05;;;;;;;22.27;13.25;;;11.60;99.90;;;11.02;100.00;101612.22;4151580;28;20033;-80
2023/05/31 05:22:06;;;;;;;25.00;14.35;;;11.70;99.90;;;10.95;100.00;101597.94;4155952;28;20025;-80
2023/05/31 05:24:07;;;;;;;23.73;14.07;;;11.70;99.90;;;11.06;100.00;101612.78;4184041;28;20059;-80
2023/05/31 05:26:08;;;;;;;20.13;13.48;;;11.80;99.90;;;11.08;100.00;101601.13;4167743;28;20030;-80
2023/05/31 05:28:10;;;;;;;21.13;12.55;;;11.80;99.90;;;11.13;100.00;101602.50;4183932;28;20043;-79
2023/05/31 05:30:12;;;;;;;21.33;14.05;;;11.80;99.90;;;11.20;100.00;101619.47;4168678;28;20056;-80
2023/05/31 05:32:12;;;;;;;21.40;13.75;;;11.90;99.90;;;11.28;100.00;101622.25;4165086;28;20039;-80
2023/05/31 05:34:13;;;;;;;22.33;14.75;;;11.90;99.90;;;11.23;100.00;101616.56;4152691;28;20049;-80
2023/05/31 05:36:14;;;;;;;23.33;14.02;;;11.90;99.90;;;11.26;100.00;101603.09;4151315;28;20022;-80
2023/05/31 05:38:15;;;;;;;22.38;13.80;;;12.00;99.90;;;11.45;100.00;101630.31;4152292;28;20022;-80
2023/05/31 05:40:16;;;;;;;26.45;14.35;;;12.00;99.90;;;11.51;100.00;101628.91;4167355;28;20038;-80
2023/05/31 05:42:17;;;;;;;25.50;14.57;;;12.00;99.90;;;11.43;100.00;101605.84;4152176;28;20036;-79
2023/05/31 05:44:18;;;;;;;22.92;13.98;;;12.10;99.90;;;11.60;100.00;101630.72;4152531;28;20030;-79
2023/05/31 05:46:19;;;;;;;26.83;15.25;;;12.20;99.90;;;11.60;100.00;101628.06;4151193;28;20426;-80
2023/05/31 05:48:20;;;;;;;19.05;13.40;;;12.10;99.90;;;11.50;100.00;101601.66;4151073;28;20124;-80
2023/05/31 05:50:22;;;;;;;21.88;13.13;;;12.20;99.90;;;11.53;100.00;101601.38;4153210;28;20065;-80
2023/05/31 05:52:23;;;;;;;22.80;14.20;;;12.20;99.90;;;11.60;100.00;101605.13;4156116;28;20033;-79
2023/05/31 05:54:23;;;;;;;21.60;14.73;;;12.30;99.90;;;11.70;100.00;101612.25;4187425;28;20044;-79
2023/05/31 05:56:25;;;;;;;22.23;14.98;;;12.40;99.90;;;11.70;100.00;101602.50;4171604;28;20029;-79
2023/05/31 05:58:26;;;;;;;24.48;14.45;;;12.40;99.90;;;11.71;100.00;101604.16;4171991;28;20029;-80
2023/05/31 06:00:28;;;;;;;22.15;14.57;;;12.40;99.90;;;11.84;100.00;101607.34;4168614;28;20038;-79
2023/05/31 06:02:29;;;;;;;23.38;14.85;;;12.50;99.90;;;11.77;100.00;101597.50;4169468;28;20033;-80
2023/05/31 06:04:30;;;;;;;24.35;14.93;;;12.50;99.90;;;11.87;100.00;101607.06;4155376;28;20084;-80
2023/05/31 06:06:31;;;;;;;23.30;15.02;;;12.50;99.90;;;11.91;100.00;101600.50;4155722;28;20026;-79
2023/05/31 06:08:32;;;;;;;22.52;13.98;;;12.60;99.90;;;11.97;100.00;101594.66;4138156;28;20484;-79
2023/05/31 06:10:33;;;;;;;21.10;14.18;;;12.70;99.90;;;12.18;100.00;101618.22;4155285;28;20030;-79
2023/05/31 06:12:34;;;;;;;22.85;14.02;;;12.70;99.90;;;12.16;100.00;101599.84;4156844;28;20387;-79
2023/05/31 06:14:35;;;;;;;23.83;15.02;;;12.80;99.90;;;12.32;100.00;101615.09;4168112;28;20030;-79
2023/05/31 06:16:36;;;;;;;25.58;14.68;;;12.90;99.90;;;12.27;100.00;101595.38;4162154;28;20516;-80
2023/05/31 06:18:37;;;;;;;25.45;14.50;;;12.90;99.90;;;12.27;100.00;101601.50;4155328;28;20469;-80
2023/05/31 06:20:38;;;;;;;24.15;14.60;;;12.90;99.90;;;12.47;100.00;101620.75;4155198;28;20022;-80
2023/05/31 06:22:39;;;;;;;23.05;14.65;;;13.00;99.90;;;12.43;100.00;101611.41;4159784;28;20025;-80
2023/05/31 06:24:42;;;;;;;20.08;13.90;;;13.00;99.90;;;12.66;100.00;101618.81;4145300;28;20492;-82
2023/05/31 06:26:42;;;;;;;18.05;12.75;;;13.10;99.90;;;12.65;100.00;101600.44;4171543;28;20159;-80
2023/05/31 06:28:45;;;;;;;21.90;14.55;;;13.20;99.90;;;12.88;100.00;101627.31;4171333;28;20044;-80
2023/05/31 06:30:46;;;;;;;24.13;14.15;;;13.30;99.90;;;12.82;100.00;101612.03;4170449;28;20068;-80
2023/05/31 06:32:47;;;;;;;21.80;13.93;;;13.40;99.90;;;12.81;100.00;101603.28;4153653;28;20389;-79
2023/05/31 06:34:48;;;;;;;22.40;14.38;;;13.40;99.90;;;12.79;100.00;101592.00;4142541;28;20033;-79
2023/05/31 06:36:49;;;;;;;21.65;14.73;;;13.40;99.90;;;12.90;100.00;101622.75;4155129;28;20037;-80
2023/05/31 06:38:50;;;;;;;20.38;13.43;;;13.40;99.90;;;12.89;100.00;101607.81;4153588;28;20026;-80
2023/05/31 06:40:52;;;;;;;18.75;13.02;;;13.50;99.90;;;12.89;100.00;101600.72;4137599;28;20073;-80
2023/05/31 06:42:53;;;;;;;29.42;13.85;;;13.50;99.90;;;12.95;100.00;101591.34;4157314;28;20403;-79
2023/05/31 06:44:53;;;;;;;19.25;13.82;;;13.60;99.90;;;12.95;100.00;101593.97;4156805;28;20034;-80
2023/05/31 06:46:55;;;;;;;22.23;14.40;;;13.70;99.90;;;13.07;100.00;101611.31;4154874;28;20064;-80
2023/05/31 06:48:56;;;;;;;18.65;12.85;;;13.70;99.90;;;13.04;100.00;101590.44;4153731;28;20030;-80
2023/05/31 06:50:57;;;;;;;22.50;13.30;;;13.70;99.90;;;13.24;100.00;101599.91;4154860;28;20033;-80
2023/05/31 06:52:58;;;;;;;22.23;14.18;;;13.80;99.90;;;13.38;100.00;101598.56;4141689;28;20385;-80
2023/05/31 06:54:59;;;;;;;22.27;14.10;;;13.90;99.90;;;13.34;100.00;101592.72;4170890;28;20497;-80
2023/05/31 06:57:00;;;;;;;20.08;13.13;;;13.90;99.90;;;13.42;100.00;101597.25;4170729;28;20025;-80
2023/05/31 06:59:01;;;;;;;21.75;13.63;;;14.00;99.90;;;13.45;100.00;101604.88;4169825;28;20104;-80
2023/05/31 07:01:02;;;;;;;20.48;13.38;;;14.00;99.90;;;13.42;100.00;101589.28;4169734;28;20044;-80
2023/05/31 07:03:03;;;;;;;22.30;13.48;;;14.10;99.90;;;13.49;100.00;101587.69;4167740;28;20029;-80
2023/05/31 07:05:04;;;;;;;23.48;13.60;;;14.10;99.90;;;13.52;100.00;101579.44;4170953;28;20029;-80
2023/05/31 07:07:06;;;;;;;21.30;13.00;;;14.20;99.90;;;13.59;100.00;101591.09;4169672;28;20048;-80
2023/05/31 07:09:07;;;;;;;19.80;13.40;;;14.20;99.90;;;13.75;100.00;101601.81;4169800;28;20499;-80
2023/05/31 07:11:08;;;;;;;22.00;12.40;;;14.30;99.90;;;13.69;100.00;101590.00;4170858;28;20029;-80
2023/05/31 07:13:09;;;;;;;19.52;12.48;;;14.30;99.90;;;13.78;100.00;101601.50;4165286;28;20396;-80
2023/05/31 07:15:10;;;;;;;22.45;13.77;;;14.40;99.90;;;13.80;100.00;101603.00;4163293;28;20045;-80
2023/05/31 07:17:11;;;;;;;19.85;12.63;;;14.40;99.90;;;13.82;100.00;101586.94;4156653;28;20037;-80
2023/05/31 07:19:12;;;;;;;22.65;12.55;;;14.50;99.90;;;13.82;100.00;101574.53;4153381;28;20030;-80
2023/05/31 07:21:13;;;;;;;16.67;13.57;;;14.60;99.90;;;13.95;100.00;101597.94;4154351;28;20034;-80
2023/05/31 07:23:14;;;;;;;15.95;11.15;;;14.60;99.90;;;14.07;100.00;101594.03;4172231;28;20092;-80
2023/05/31 07:25:15;;;;;;;15.43;11.27;;;14.60;99.90;;;14.07;100.00;101567.50;4140526;28;20034;-80
2023/05/31 07:27:15;;;;;;;18.92;12.38;;;14.70;99.90;;;14.25;100.00;101599.25;4152845;28;20029;-80
2023/05/31 07:29:16;;;;;;;20.90;12.63;;;14.80;99.90;;;14.30;100.00;101578.41;4153142;28;20033;-80
2023/05/31 07:31:17;;;;;;;20.27;12.02;;;14.90;99.90;;;14.25;100.00;101584.19;4152985;28;20061;-80
2023/05/31 07:33:18;;;;;;;16.58;12.02;;;15.00;99.90;;;14.30;100.00;101587.22;4159495;28;20025;-80
2023/05/31 07:35:19;;;;;;;18.70;12.45;;;15.00;99.90;;;14.45;100.00;101602.56;4169272;28;20105;-80
2023/05/31 07:37:20;;;;;;;19.85;12.40;;;15.00;99.90;;;14.50;100.00;101582.50;4169263;28;20029;-80
2023/05/31 07:39:22;;;;;;;19.40;12.93;;;15.10;99.90;;;14.46;100.00;101572.34;4152565;28;20026;-80
2023/05/31 07:41:22;;;;;;;19.50;13.20;;;15.20;99.90;;;14.59;100.00;101586.00;4152631;28;20038;-80
2023/05/31 07:43:24;;;;;;;21.80;13.20;;;15.20;99.90;;;14.63;100.00;101588.19;4159784;28;20028;-80
2023/05/31 07:45:25;;;;;;;19.05;12.60;;;15.30;99.90;;;14.56;100.00;101565.06;4185664;28;20087;-80
2023/05/31 07:47:26;;;;;;;17.10;12.88;;;15.30;99.90;;;14.88;100.00;101597.84;4170333;28;20056;-80
2023/05/31 07:49:27;;;;;;;18.13;11.48;;;15.40;99.90;;;14.93;100.00;101589.41;4170425;28;20033;-80
2023/05/31 07:51:31;;;;;;;20.08;12.68;;;15.50;99.90;;;14.98;100.00;101597.72;4168905;28;20018;-80
2023/05/31 07:53:32;;;;;;;19.60;12.48;;;15.50;99.90;;;14.88;100.00;101571.28;4166180;28;20490;-80
2023/05/31 07:55:33;;;;;;;18.52;12.82;;;15.60;99.90;;;15.03;100.00;101579.44;4169140;28;20026;-80
2023/05/31 07:57:34;;;;;;;15.75;11.75;;;15.60;99.90;;;15.09;100.00;101583.28;4167801;28;20025;-80
2023/05/31 07:59:35;;;;;;;18.60;11.63;;;15.70;99.90;;;15.12;100.00;101567.81;4183076;28;20025;-80
2023/05/31 08:01:36;;;;;;;16.23;12.73;;;15.80;99.90;;;15.23;100.00;101579.97;4152660;28;20034;-80
2023/05/31 08:03:37;;;;;;;18.67;11.32;;;15.80;99.90;;;15.33;100.00;101580.63;4160537;28;20026;-80
2023/05/31 08:05:38;;;;;;;20.02;12.25;;;15.90;99.90;;;15.30;100.00;101565.84;4153808;28;20462;-80
2023/05/31 08:07:39;;;;;;;18.15;12.88;;;16.00;99.90;;;15.43;100.00;101565.34;4163476;28;20037;-80
2023/05/31 08:09:40;;;;;;;16.85;12.57;;;16.10;99.90;;;15.56;100.00;101581.63;4153511;28;20030;-80
2023/05/31 08:11:41;;;;;;;23.48;12.32;;;16.10;99.90;;;15.58;100.00;101563.69;4152203;28;20500;-80
2023/05/31 08:13:42;;;;;;;15.13;11.20;;;16.20;99.90;;;15.71;100.00;101558.66;4161574;28;20428;-80